createdAt,value
2023-05-08T00:03:40.050Z,37.30
2023-05-08T00:08:42.451Z,37.19
2023-05-08T00:13:44.840Z,37.68
2023-05-08T00:18:46.936Z,38.12
2023-05-08T00:23:49.105Z,38.14
2023-05-08T00:28:51.395Z,37.75
2023-05-08T00:33:53.579Z,38.49
2023-05-08T00:38:55.759Z,38.64
2023-05-08T00:43:58.046Z,38.62
2023-05-08T00:49:01.150Z,39.74
2023-05-08T00:54:03.888Z,40.04
2023-05-08T00:59:11.184Z,40.46
2023-05-08T01:04:14.680Z,39.83
2023-05-08T01:09:16.856Z,40.26
2023-05-08T01:14:37.167Z,40.75
2023-05-08T01:20:06.690Z,40.91
2023-05-08T01:25:44.003Z,41.96
2023-05-08T01:31:11.783Z,41.65
2023-05-08T01:36:57.489Z,41.74
2023-05-08T01:42:13.905Z,41.54
2023-05-08T01:47:18.679Z,42.27
2023-05-08T01:52:32.915Z,43.19
2023-05-08T01:57:39.845Z,42.99
2023-05-08T02:02:42.466Z,42.92
2023-05-08T02:07:48.120Z,42.89
2023-05-08T02:12:51.200Z,42.93
2023-05-08T02:17:55.058Z,43.16
2023-05-08T02:22:57.894Z,43.03
2023-05-08T02:28:01.105Z,43.19
2023-05-08T02:33:05.512Z,43.70
2023-05-08T02:38:10.388Z,43.70
2023-05-08T02:43:12.987Z,42.98
2023-05-08T02:48:24.926Z,43.83
2023-05-08T02:53:43.773Z,43.79
2023-05-08T02:59:11.652Z,44.10
2023-05-08T03:04:25.207Z,43.95
2023-05-08T03:09:36.769Z,44.33
2023-05-08T03:14:44.067Z,44.02
2023-05-08T03:19:51.970Z,44.29
2023-05-08T03:24:56.263Z,44.46
2023-05-08T03:30:01.518Z,44.63
2023-05-08T03:35:05.189Z,44.73
2023-05-08T03:40:08.349Z,44.31
2023-05-08T03:45:11.055Z,44.04
2023-05-08T03:50:13.579Z,44.19
2023-05-08T03:55:16.130Z,43.98
2023-05-08T04:00:36.439Z,43.77
2023-05-08T04:05:49.583Z,43.97
2023-05-08T04:11:26.425Z,44.07
2023-05-08T04:16:32.625Z,44.24
2023-05-08T04:21:36.696Z,44.29
2023-05-08T04:26:40.304Z,44.56
2023-05-08T04:31:43.132Z,44.55
2023-05-08T04:36:45.811Z,44.78
2023-05-08T04:41:48.534Z,44.61
2023-05-08T04:46:50.907Z,44.87
2023-05-08T04:51:53.689Z,45.11
2023-05-08T04:56:55.876Z,44.98
2023-05-08T05:01:58.548Z,44.97
2023-05-08T05:07:01.376Z,45.02
2023-05-08T05:12:04.570Z,45.06
2023-05-08T05:17:06.754Z,45.40
2023-05-08T05:22:10.275Z,45.40
2023-05-08T05:27:12.463Z,45.80
2023-05-08T05:32:14.752Z,45.73
2023-05-08T05:37:17.128Z,46.00
2023-05-08T05:42:19.309Z,46.38
2023-05-08T05:47:21.625Z,46.10
2023-05-08T05:52:23.879Z,46.15
2023-05-08T05:57:26.066Z,45.80
2023-05-08T06:02:28.395Z,46.05
2023-05-08T06:07:30.853Z,46.10
2023-05-08T06:12:33.027Z,46.09
2023-05-08T06:17:35.128Z,46.09
2023-05-08T06:22:39.754Z,46.51
2023-05-08T06:27:41.937Z,46.55
2023-05-08T06:32:44.152Z,46.18
2023-05-08T06:37:46.522Z,46.17
2023-05-08T06:42:48.902Z,46.11
2023-05-08T06:47:51.007Z,46.06
2023-05-08T06:52:53.070Z,45.46
2023-05-08T06:57:55.556Z,45.62
2023-05-08T07:02:57.794Z,45.29
2023-05-08T07:08:00.025Z,45.51
2023-05-08T07:13:02.296Z,44.93
2023-05-08T07:18:04.727Z,44.59
2023-05-08T07:23:07.308Z,44.42
2023-05-08T07:28:09.485Z,44.29
2023-05-08T07:33:12.280Z,43.67
2023-05-08T07:38:14.566Z,43.27
2023-05-08T07:43:16.863Z,42.66
2023-05-08T07:48:19.548Z,42.19
2023-05-08T07:53:21.637Z,42.00
2023-05-08T07:58:24.022Z,41.02
2023-05-08T08:03:26.370Z,40.56
2023-05-08T08:08:28.796Z,39.63
2023-05-08T08:13:32.431Z,39.07
2023-05-08T08:18:37.666Z,38.85
2023-05-08T08:23:39.852Z,38.61
2023-05-08T08:28:42.459Z,38.28
2023-05-08T08:33:44.632Z,38.31
2023-05-08T08:38:46.815Z,37.38
2023-05-08T08:43:49.214Z,37.61
2023-05-08T08:48:54.379Z,37.13
2023-05-08T08:54:28.185Z,36.88
2023-05-08T08:59:32.629Z,36.11
2023-05-08T09:04:34.710Z,36.00
2023-05-08T09:09:40.544Z,35.72
2023-05-08T09:14:43.379Z,35.59
2023-05-08T09:19:49.054Z,35.66
2023-05-08T09:24:59.923Z,35.40
2023-05-08T09:30:10.071Z,35.19
2023-05-08T09:35:12.674Z,34.93
2023-05-08T09:40:20.992Z,34.74
2023-05-08T09:45:31.712Z,34.59
2023-05-08T09:50:34.105Z,34.20
2023-05-08T09:55:48.723Z,33.27
2023-05-08T10:00:51.193Z,33.08
2023-05-08T10:05:53.450Z,33.10
2023-05-08T10:11:14.308Z,33.21
2023-05-08T10:16:18.229Z,32.85
2023-05-08T10:21:20.783Z,32.77
2023-05-08T10:26:30.766Z,32.45
2023-05-08T10:31:36.147Z,32.12
2023-05-08T10:36:38.809Z,32.30
2023-05-08T10:41:41.412Z,32.16
2023-05-08T10:47:22.097Z,31.89
2023-05-08T10:52:29.501Z,31.38
2023-05-08T10:57:32.003Z,31.11
2023-05-08T11:02:36.584Z,30.89
2023-05-08T11:07:58.788Z,30.58
2023-05-08T11:13:01.630Z,30.82
2023-05-08T11:18:13.116Z,30.39
2023-05-08T11:23:25.826Z,30.20
2023-05-08T11:28:32.738Z,30.04
2023-05-08T11:33:37.550Z,29.17
2023-05-08T11:38:40.451Z,29.22
2023-05-08T11:44:00.664Z,29.07
2023-05-08T11:49:03.154Z,29.09
2023-05-08T11:54:06.261Z,28.87
2023-05-08T11:59:09.064Z,28.37
2023-05-08T12:04:12.797Z,28.01
2023-05-08T12:09:18.358Z,28.01
2023-05-08T12:14:23.195Z,28.04
2023-05-08T12:19:25.271Z,27.64
2023-05-08T12:24:27.450Z,27.48
2023-05-08T12:29:29.534Z,27.84
2023-05-08T12:34:32.030Z,27.46
2023-05-08T12:39:36.939Z,27.29
2023-05-08T12:44:38.957Z,27.56
2023-05-08T12:49:41.346Z,27.08
2023-05-08T12:54:47.934Z,27.04
2023-05-08T12:59:50.118Z,26.78
2023-05-08T13:04:55.503Z,26.84
2023-05-08T13:10:03.131Z,26.88
2023-05-08T13:15:05.685Z,26.71
2023-05-08T13:20:08.841Z,26.76
2023-05-08T13:25:10.998Z,26.63
2023-05-08T13:30:15.093Z,26.47
2023-05-08T13:35:18.933Z,26.34
2023-05-08T13:40:21.005Z,26.09
2023-05-08T13:45:23.605Z,26.18
2023-05-08T13:50:25.681Z,25.77
2023-05-08T13:55:27.883Z,24.87
2023-05-08T14:00:30.257Z,23.68
2023-05-08T14:05:32.440Z,22.70
2023-05-08T14:10:34.929Z,19.63
2023-05-08T14:15:37.912Z,19.59
2023-05-08T14:20:40.335Z,18.49
2023-05-08T14:25:42.506Z,17.60
2023-05-08T14:30:44.588Z,16.04
2023-05-08T14:35:48.004Z,15.23
2023-05-08T14:40:50.596Z,13.22
2023-05-08T14:45:52.753Z,12.04
2023-05-08T14:50:56.818Z,11.26
2023-05-08T14:55:59.261Z,10.22
2023-05-08T15:01:01.692Z,9.01
2023-05-08T15:06:04.550Z,8.27
2023-05-08T15:11:06.571Z,7.31
2023-05-08T15:16:09.096Z,7.29
2023-05-08T15:21:11.242Z,6.72
2023-05-08T15:26:13.432Z,6.68
2023-05-08T15:31:15.848Z,6.67
2023-05-08T15:36:18.002Z,6.15
2023-05-08T15:41:21.420Z,5.62
2023-05-08T15:46:23.651Z,5.37
2023-05-08T15:51:26.094Z,5.08
2023-05-08T15:56:28.280Z,5.16
2023-05-08T16:01:30.387Z,5.32
2023-05-08T16:06:32.679Z,5.08
2023-05-08T16:11:34.726Z,5.17
2023-05-08T16:16:38.760Z,5.41
2023-05-08T16:21:40.529Z,5.49
2023-05-08T16:26:42.612Z,5.29
2023-05-08T16:31:44.826Z,5.58
2023-05-08T16:36:46.980Z,5.78
2023-05-08T16:41:48.990Z,5.46
2023-05-08T16:46:51.403Z,5.62
2023-05-08T16:51:53.414Z,5.43
2023-05-08T16:56:55.697Z,5.64
2023-05-08T17:01:57.717Z,5.72
2023-05-08T17:07:00.428Z,5.88
2023-05-08T17:12:02.412Z,6.24
2023-05-08T17:17:04.701Z,6.27
2023-05-08T17:22:06.789Z,6.54
2023-05-08T17:27:09.238Z,6.75
2023-05-08T17:32:11.503Z,7.05
2023-05-08T17:37:13.805Z,7.37
2023-05-08T17:42:16.093Z,7.91
2023-05-08T17:47:18.200Z,8.44
2023-05-08T17:52:20.459Z,8.85
2023-05-08T17:57:22.512Z,9.53
2023-05-08T18:02:24.977Z,10.16
2023-05-08T18:07:27.732Z,10.77
2023-05-08T18:12:32.084Z,11.37
2023-05-08T18:17:34.145Z,11.94
2023-05-08T18:22:36.748Z,12.32
2023-05-08T18:27:42.720Z,13.03
2023-05-08T18:32:44.826Z,13.94
2023-05-08T18:37:47.902Z,14.58
2023-05-08T18:42:49.911Z,15.18
2023-05-08T18:47:53.626Z,15.79
2023-05-08T18:52:55.994Z,16.45
2023-05-08T18:57:58.178Z,16.98
2023-05-08T19:03:00.529Z,17.18
2023-05-08T19:08:05.619Z,17.92
2023-05-08T19:13:07.746Z,18.28
2023-05-08T19:18:09.830Z,18.60
2023-05-08T19:23:11.965Z,19.02
2023-05-08T19:28:15.478Z,19.79
2023-05-08T19:33:21.573Z,19.84
2023-05-08T19:38:25.993Z,20.27
2023-05-08T19:43:28.176Z,20.56
2023-05-08T19:48:30.207Z,21.33
2023-05-08T19:53:32.440Z,21.49
2023-05-08T19:58:34.623Z,22.56
2023-05-08T20:03:37.415Z,22.82
2023-05-08T20:08:39.506Z,23.52
2023-05-08T20:13:41.601Z,23.38
2023-05-08T20:18:44.384Z,23.59
2023-05-08T20:23:46.572Z,24.67
2023-05-08T20:28:48.962Z,25.07
2023-05-08T20:33:51.159Z,25.13
2023-05-08T20:38:54.817Z,25.56
2023-05-08T20:43:59.656Z,25.67
2023-05-08T20:49:03.645Z,26.28
2023-05-08T20:55:11.185Z,26.03
2023-05-08T21:00:14.751Z,26.92
2023-05-08T21:05:18.183Z,27.06
2023-05-08T21:10:20.642Z,27.40
2023-05-08T21:15:22.758Z,27.60
2023-05-08T21:20:24.951Z,28.12
2023-05-08T21:25:27.124Z,28.43
2023-05-08T21:30:36.170Z,28.60
2023-05-08T21:35:38.371Z,29.10
2023-05-08T21:40:40.762Z,28.85
2023-05-08T21:45:43.040Z,29.29
2023-05-08T21:50:45.345Z,29.20
2023-05-08T21:55:47.506Z,29.72
2023-05-08T22:00:49.684Z,29.38
2023-05-08T22:05:51.872Z,29.69
2023-05-08T22:10:53.960Z,30.47
2023-05-08T22:15:56.785Z,30.71
2023-05-08T22:20:59.038Z,31.12
2023-05-08T22:26:02.441Z,31.32
2023-05-08T22:31:06.275Z,31.39
2023-05-08T22:36:09.445Z,31.41
2023-05-08T22:41:11.571Z,31.72
2023-05-08T22:46:16.478Z,31.97
2023-05-08T22:51:19.109Z,32.02
2023-05-08T22:56:21.700Z,33.47
2023-05-08T23:01:24.118Z,32.69
2023-05-08T23:06:26.582Z,33.27
2023-05-08T23:11:28.660Z,33.49
2023-05-08T23:16:30.886Z,33.84
2023-05-08T23:21:33.548Z,33.96
2023-05-08T23:26:35.727Z,34.18
2023-05-08T23:31:37.870Z,34.33
2023-05-08T23:36:40.198Z,34.44
2023-05-08T23:41:42.493Z,34.59
2023-05-08T23:46:45.857Z,34.99
2023-05-08T23:51:48.085Z,35.56
2023-05-08T23:56:50.377Z,35.67
